Time;durP1;ratioP1;P1;durP2;ratioP2;P2;SDS_P1;SDS_P2;PMS_P1;PMS_P2;Temp;Humidity;BMP_temperature;BMP_pressure;BME280_temperature;BME280_humidity;BME280_pressure;Samples;Min_cycle;Max_cycle;Signal;HPM_P1;HPM_P2
2022/01/20 00:03:23;;;;;;;2.35;1.67;;;;;;;;;;5101353;28;20184;-44
2022/01/20 00:08:36;;;;;;;1.83;1.58;;;;;;;;;;5098997;28;22019;-44
2022/01/20 00:27:34;;;;;;;1.67;1.38;;;;;;;;;;5097536;28;20596;-44
2022/01/20 00:35:24;;;;;;;1.85;1.50;;;;;;;;;;5113581;28;20201;-44
2022/01/20 00:37:50;;;;;;;1.88;1.30;;;;;;;;;;5104173;28;20255;-44
2022/01/20 00:40:16;;;;;;;2.25;1.30;;;;;;;;;;5104175;28;20323;-44
2022/01/20 00:42:43;;;;;;;1.33;1.23;;;;;;;;;;5099519;28;20185;-44
2022/01/20 00:45:09;;;;;;;1.48;1.30;;;;;;;;;;5105650;28;20288;-44
2022/01/20 00:47:37;;;;;;;1.55;1.13;;;;;;;;;;5096189;28;20190;-44
2022/01/20 00:50:03;;;;;;;1.42;1.17;;;;;;;;;;5102397;28;20215;-44
2022/01/20 00:52:29;;;;;;;2.72;1.38;;;;;;;;;;5107862;28;20183;-45
2022/01/20 00:54:55;;;;;;;1.50;1.38;;;;;;;;;;5110894;28;20200;-44
2022/01/20 00:57:21;;;;;;;1.73;1.40;;;;;;;;;;5108756;28;20185;-44
2022/01/20 00:59:47;;;;;;;1.45;1.30;;;;;;;;;;5099050;28;20181;-44
2022/01/20 01:02:13;;;;;;;1.33;1.17;;;;;;;;;;5110769;28;20220;-44
2022/01/20 01:04:40;;;;;;;1.40;1.27;;;;;;;;;;5106286;28;20269;-45
2022/01/20 01:09:38;;;;;;;1.98;1.45;;;;;;;;;;5099119;28;20228;-44
2022/01/20 01:12:06;;;;;;;2.05;1.58;;;;;;;;;;5103787;28;20486;-44
2022/01/20 01:14:34;;;;;;;1.38;1.25;;;;;;;;;;5110087;28;20852;-44
2022/01/20 01:24:42;;;;;;;1.17;1.08;;;;;;;;;;5105589;28;20209;-44
2022/01/20 01:27:09;;;;;;;1.10;1.10;;;;;;;;;;5109959;28;20560;-44
2022/01/20 01:32:14;;;;;;;1.15;1.05;;;;;;;;;;5098239;28;20177;-44
2022/01/20 01:34:46;;;;;;;1.88;1.13;;;;;;;;;;5102425;28;20181;-44
2022/01/20 01:38:23;;;;;;;1.38;1.27;;;;;;;;;;5092223;28;20173;-44
2022/01/20 01:40:12;;;;;;;1.20;1.10;;;;;;;;;;5100285;28;20704;-44
2022/01/20 01:42:51;;;;;;;1.20;1.10;;;;;;;;;;5102328;28;20231;-44
2022/01/20 01:45:18;;;;;;;1.30;1.08;;;;;;;;;;5098327;28;20177;-44
2022/01/20 01:47:45;;;;;;;1.73;1.08;;;;;;;;;;5102165;28;20178;-45
2022/01/20 01:50:11;;;;;;;1.58;1.15;;;;;;;;;;5103367;28;20291;-45
2022/01/20 01:52:38;;;;;;;1.15;1.05;;;;;;;;;;5099542;28;20208;-44
2022/01/20 01:55:04;;;;;;;1.33;0.95;;;;;;;;;;5114317;28;20177;-44
2022/01/20 01:57:30;;;;;;;1.10;1.00;;;;;;;;;;5101214;28;20182;-44
2022/01/20 01:59:56;;;;;;;1.27;1.10;;;;;;;;;;5099569;28;20201;-44
2022/01/20 02:02:23;;;;;;;1.95;0.90;;;;;;;;;;5095015;28;20281;-44
2022/01/20 02:04:49;;;;;;;1.80;0.90;;;;;;;;;;5094855;28;20177;-44
2022/01/20 02:07:45;;;;;;;0.88;0.85;;;;;;;;;;5077095;28;20189;-44
2022/01/20 02:20:50;;;;;;;1.50;0.80;;;;;;;;;;5095180;28;20536;-44
2022/01/20 02:23:16;;;;;;;1.13;1.02;;;;;;;;;;5096409;28;20223;-44
2022/01/20 02:25:42;;;;;;;0.90;0.75;;;;;;;;;;5110945;28;20514;-44
2022/01/20 02:28:09;;;;;;;0.80;0.77;;;;;;;;;;5115110;28;20179;-44
2022/01/20 02:30:35;;;;;;;1.00;1.00;;;;;;;;;;5097053;28;20455;-44
2022/01/20 02:33:03;;;;;;;0.75;0.75;;;;;;;;;;5107165;28;20310;-44
2022/01/20 02:35:31;;;;;;;1.17;0.90;;;;;;;;;;5098121;28;20457;-44
2022/01/20 02:38:08;;;;;;;0.98;0.98;;;;;;;;;;5096164;28;20221;-44
2022/01/20 02:45:51;;;;;;;0.65;0.65;;;;;;;;;;5101787;28;20270;-44
2022/01/20 02:48:17;;;;;;;0.98;0.90;;;;;;;;;;5096230;28;20182;-44
2022/01/20 02:50:43;;;;;;;0.80;0.70;;;;;;;;;;5114923;28;20222;-44
2022/01/20 02:53:09;;;;;;;1.02;0.80;;;;;;;;;;5108229;28;20178;-44
2022/01/20 02:55:35;;;;;;;1.70;0.90;;;;;;;;;;5109276;28;20193;-44
2022/01/20 02:58:01;;;;;;;0.80;0.80;;;;;;;;;;5095243;28;20234;-44
2022/01/20 03:00:27;;;;;;;1.05;0.90;;;;;;;;;;5094241;28;20178;-44
2022/01/20 03:02:55;;;;;;;0.70;0.70;;;;;;;;;;5094063;28;20235;-44
2022/01/20 03:05:21;;;;;;;0.65;0.65;;;;;;;;;;5088940;28;20181;-44
2022/01/20 03:07:47;;;;;;;0.80;0.80;;;;;;;;;;5094341;28;20177;-44
2022/01/20 03:10:13;;;;;;;0.95;0.75;;;;;;;;;;5094518;28;20248;-44
2022/01/20 03:12:39;;;;;;;0.80;0.80;;;;;;;;;;5094333;28;20241;-44
2022/01/20 03:15:05;;;;;;;1.15;0.70;;;;;;;;;;5104537;28;20273;-44
2022/01/20 03:17:32;;;;;;;0.80;0.60;;;;;;;;;;5114263;28;20173;-44
2022/01/20 03:19:59;;;;;;;0.60;0.60;;;;;;;;;;5093712;28;20177;-44
2022/01/20 03:22:24;;;;;;;0.85;0.70;;;;;;;;;;5094556;28;20189;-44
2022/01/20 03:24:50;;;;;;;0.93;0.68;;;;;;;;;;5099944;28;20234;-44
2022/01/20 03:27:16;;;;;;;1.00;0.90;;;;;;;;;;5108023;28;20185;-44
2022/01/20 03:29:43;;;;;;;0.82;0.77;;;;;;;;;;5102548;28;20225;-44
2022/01/20 03:32:09;;;;;;;0.75;0.60;;;;;;;;;;5094128;28;20237;-44
2022/01/20 03:34:35;;;;;;;1.10;0.82;;;;;;;;;;5092281;28;20329;-44
2022/01/20 03:37:03;;;;;;;1.35;0.80;;;;;;;;;;5093978;28;20652;-44
2022/01/20 03:39:30;;;;;;;1.65;0.73;;;;;;;;;;5094544;28;20173;-44
2022/01/20 03:41:56;;;;;;;0.77;0.73;;;;;;;;;;5093861;28;20181;-44
2022/01/20 03:44:22;;;;;;;1.45;0.77;;;;;;;;;;5098721;28;20185;-44
2022/01/20 03:46:48;;;;;;;0.73;0.68;;;;;;;;;;5101021;28;20216;-44
2022/01/20 03:51:53;;;;;;;0.73;0.73;;;;;;;;;;5111969;28;20452;-44
2022/01/20 03:54:19;;;;;;;1.13;0.65;;;;;;;;;;5102221;28;20206;-44
2022/01/20 03:56:45;;;;;;;1.00;0.80;;;;;;;;;;5107811;28;20185;-44
2022/01/20 03:59:11;;;;;;;1.00;0.90;;;;;;;;;;5094260;28;20196;-44
2022/01/20 04:01:37;;;;;;;1.13;0.57;;;;;;;;;;5092756;28;20635;-44
2022/01/20 04:04:04;;;;;;;1.00;0.70;;;;;;;;;;5097792;28;20575;-44
2022/01/20 04:06:30;;;;;;;1.20;0.60;;;;;;;;;;5113665;28;20557;-44
2022/01/20 04:08:56;;;;;;;0.70;0.70;;;;;;;;;;5113964;28;20172;-44
2022/01/20 04:11:27;;;;;;;1.40;0.70;;;;;;;;;;5118028;28;20158;-44
2022/01/20 04:13:53;;;;;;;0.68;0.68;;;;;;;;;;5110423;28;20178;-44
2022/01/20 04:16:35;;;;;;;0.68;0.68;;;;;;;;;;5096385;28;20274;-44
2022/01/20 04:19:03;;;;;;;0.80;0.80;;;;;;;;;;5103270;28;20182;-44
2022/01/20 04:21:30;;;;;;;0.93;0.73;;;;;;;;;;5097551;28;20250;-44
2022/01/20 04:23:58;;;;;;;1.25;0.80;;;;;;;;;;5096368;28;20178;-44
2022/01/20 04:26:24;;;;;;;1.00;0.77;;;;;;;;;;5088780;28;20614;-44
2022/01/20 04:28:53;;;;;;;0.73;0.70;;;;;;;;;;5105900;28;20188;-44
2022/01/20 04:31:20;;;;;;;1.05;0.82;;;;;;;;;;5115896;28;20189;-44
2022/01/20 04:33:47;;;;;;;1.45;0.80;;;;;;;;;;5110723;28;20181;-44
2022/01/20 04:36:13;;;;;;;0.93;0.80;;;;;;;;;;5105403;28;20198;-44
2022/01/20 04:38:39;;;;;;;0.52;0.52;;;;;;;;;;5097019;28;20166;-44
2022/01/20 04:41:05;;;;;;;1.63;0.73;;;;;;;;;;5097070;28;20169;-44
2022/01/20 04:43:31;;;;;;;1.40;0.82;;;;;;;;;;5095983;28;20190;-44
2022/01/20 04:46:12;;;;;;;0.80;0.57;;;;;;;;;;5102213;28;20302;-44
2022/01/20 04:59:24;;;;;;;2.25;0.70;;;;;;;;;;5102068;28;20196;-44
2022/01/20 05:01:50;;;;;;;1.95;0.90;;;;;;;;;;5104592;28;20478;-44
2022/01/20 05:04:16;;;;;;;0.82;0.60;;;;;;;;;;5096675;28;20174;-44
2022/01/20 05:06:44;;;;;;;1.10;0.70;;;;;;;;;;5117149;28;20185;-44
2022/01/20 05:09:18;;;;;;;0.95;0.68;;;;;;;;;;5116038;28;20200;-44
2022/01/20 05:11:49;;;;;;;1.30;0.90;;;;;;;;;;5117387;28;20487;-44
2022/01/20 05:14:15;;;;;;;1.85;0.82;;;;;;;;;;5099081;28;20177;-44
2022/01/20 05:16:41;;;;;;;9.02;1.50;;;;;;;;;;5093975;28;20224;-44
2022/01/20 05:19:07;;;;;;;13.98;3.03;;;;;;;;;;5096157;28;20197;-44
2022/01/20 05:21:33;;;;;;;17.65;3.90;;;;;;;;;;5098885;28;20181;-44
2022/01/20 05:23:59;;;;;;;29.42;5.40;;;;;;;;;;5102997;28;20190;-44
2022/01/20 05:26:25;;;;;;;21.92;6.00;;;;;;;;;;5093527;28;20902;-44
2022/01/20 05:28:51;;;;;;;30.80;6.72;;;;;;;;;;5080266;28;20175;-44
2022/01/20 05:31:17;;;;;;;36.33;7.90;;;;;;;;;;5084777;28;20196;-44
2022/01/20 05:33:43;;;;;;;31.17;7.90;;;;;;;;;;5095252;28;20181;-45
2022/01/20 05:36:09;;;;;;;31.58;7.75;;;;;;;;;;5107406;28;20478;-45
2022/01/20 05:38:35;;;;;;;36.33;7.70;;;;;;;;;;5099883;28;20192;-44
2022/01/20 05:41:01;;;;;;;30.42;7.82;;;;;;;;;;5115928;28;20180;-44
2022/01/20 05:43:27;;;;;;;28.60;7.63;;;;;;;;;;5111524;28;20213;-45
2022/01/20 05:45:53;;;;;;;39.70;8.90;;;;;;;;;;5104311;28;20558;-45
2022/01/20 05:48:31;;;;;;;28.65;7.95;;;;;;;;;;5115954;28;20188;-44
2022/01/20 05:50:57;;;;;;;29.88;7.30;;;;;;;;;;5110172;28;20204;-44
2022/01/20 05:53:23;;;;;;;27.02;7.88;;;;;;;;;;5095440;28;20170;-44
2022/01/20 05:55:49;;;;;;;33.15;8.57;;;;;;;;;;5098179;28;20185;-45
2022/01/20 05:58:15;;;;;;;20.95;6.60;;;;;;;;;;5094183;28;20174;-45
2022/01/20 06:00:42;;;;;;;28.92;7.85;;;;;;;;;;5095476;28;20235;-45
2022/01/20 06:05:53;;;;;;;26.48;7.30;;;;;;;;;;5095100;28;20632;-45
2022/01/20 06:08:19;;;;;;;25.77;7.07;;;;;;;;;;5095181;28;20264;-45
2022/01/20 06:10:45;;;;;;;21.55;6.47;;;;;;;;;;5093926;28;20273;-45
2022/01/20 06:13:12;;;;;;;20.88;6.45;;;;;;;;;;5100236;28;20280;-44
2022/01/20 06:15:38;;;;;;;23.05;6.60;;;;;;;;;;5111297;28;20587;-44
2022/01/20 06:18:04;;;;;;;17.95;6.05;;;;;;;;;;5091721;28;20249;-45
2022/01/20 06:20:30;;;;;;;22.42;6.35;;;;;;;;;;5091050;28;20532;-44
2022/01/20 06:22:56;;;;;;;18.33;6.18;;;;;;;;;;5095241;28;20210;-44
2022/01/20 06:25:23;;;;;;;16.55;5.50;;;;;;;;;;5094357;28;20587;-44
2022/01/20 06:27:49;;;;;;;16.90;5.65;;;;;;;;;;5094391;28;20205;-44
2022/01/20 06:30:15;;;;;;;17.98;5.60;;;;;;;;;;5095318;28;20575;-44
2022/01/20 06:32:41;;;;;;;18.67;5.75;;;;;;;;;;5095265;28;20217;-45
2022/01/20 06:35:07;;;;;;;18.20;5.93;;;;;;;;;;5096538;28;20729;-45
2022/01/20 06:37:34;;;;;;;14.50;5.63;;;;;;;;;;5101529;28;20182;-44
2022/01/20 06:40:00;;;;;;;16.25;5.43;;;;;;;;;;5093785;28;20181;-44
2022/01/20 06:42:26;;;;;;;17.05;5.35;;;;;;;;;;5094965;28;20667;-45
2022/01/20 06:44:52;;;;;;;15.85;4.82;;;;;;;;;;5093796;28;20187;-46
2022/01/20 06:47:19;;;;;;;18.45;5.05;;;;;;;;;;5096335;28;20212;-45
2022/01/20 06:49:45;;;;;;;14.45;5.50;;;;;;;;;;5096838;28;20209;-45
2022/01/20 06:52:12;;;;;;;17.70;5.35;;;;;;;;;;5095118;28;20188;-45
2022/01/20 06:54:38;;;;;;;15.75;4.43;;;;;;;;;;5086601;28;20186;-45
2022/01/20 06:57:04;;;;;;;15.75;5.30;;;;;;;;;;5086852;28;20178;-45
2022/01/20 06:59:31;;;;;;;17.55;4.78;;;;;;;;;;5094234;28;20821;-45
2022/01/20 07:01:57;;;;;;;15.95;4.85;;;;;;;;;;5093811;28;20252;-45
2022/01/20 07:04:26;;;;;;;13.10;4.40;;;;;;;;;;5104468;28;20264;-44
2022/01/20 07:06:52;;;;;;;13.63;4.90;;;;;;;;;;5113803;28;20586;-44
2022/01/20 07:09:18;;;;;;;13.93;4.82;;;;;;;;;;5082137;28;20206;-44
2022/01/20 07:11:44;;;;;;;16.50;4.20;;;;;;;;;;5102402;28;20262;-44
2022/01/20 07:14:11;;;;;;;14.85;5.15;;;;;;;;;;5097905;28;20568;-45
2022/01/20 07:16:37;;;;;;;9.52;3.72;;;;;;;;;;5101936;28;20186;-44
2022/01/20 07:19:04;;;;;;;13.45;4.20;;;;;;;;;;5075803;28;20174;-44
2022/01/20 07:21:30;;;;;;;16.33;4.18;;;;;;;;;;5086754;28;20174;-44
2022/01/20 07:23:55;;;;;;;10.02;4.03;;;;;;;;;;5100265;28;20191;-44
2022/01/20 07:26:22;;;;;;;10.80;3.90;;;;;;;;;;5114169;28;20168;-44
2022/01/20 07:28:48;;;;;;;8.13;3.80;;;;;;;;;;5114266;28;20165;-44
2022/01/20 07:31:16;;;;;;;13.93;3.78;;;;;;;;;;5097419;28;20210;-44
2022/01/20 07:33:44;;;;;;;12.52;3.70;;;;;;;;;;5093339;28;20572;-44
2022/01/20 07:36:10;;;;;;;10.05;3.53;;;;;;;;;;5098123;28;20173;-44
2022/01/20 07:38:36;;;;;;;10.60;3.53;;;;;;;;;;5098776;28;20231;-44
2022/01/20 07:41:02;;;;;;;12.35;3.97;;;;;;;;;;5093760;28;20193;-44
2022/01/20 07:43:28;;;;;;;9.85;3.47;;;;;;;;;;5093360;28;20226;-44
2022/01/20 07:45:55;;;;;;;6.22;3.13;;;;;;;;;;5097661;28;20201;-44
2022/01/20 07:48:21;;;;;;;8.57;2.95;;;;;;;;;;5101798;28;20192;-44
2022/01/20 07:50:47;;;;;;;10.25;3.40;;;;;;;;;;5092868;28;20193;-44
2022/01/20 07:53:13;;;;;;;10.35;3.72;;;;;;;;;;5092763;28;20240;-44
2022/01/20 07:55:39;;;;;;;8.85;3.50;;;;;;;;;;5085868;28;20181;-45
2022/01/20 07:58:05;;;;;;;8.80;3.08;;;;;;;;;;5089084;28;20173;-44
2022/01/20 08:00:31;;;;;;;10.95;2.95;;;;;;;;;;5093398;28;20184;-44
2022/01/20 08:02:57;;;;;;;11.98;3.72;;;;;;;;;;5093771;28;20174;-44
2022/01/20 08:05:23;;;;;;;9.05;3.70;;;;;;;;;;5092584;28;20442;-44
2022/01/20 08:07:49;;;;;;;11.20;3.65;;;;;;;;;;5108379;28;20184;-44
2022/01/20 08:10:16;;;;;;;7.38;3.15;;;;;;;;;;5092864;28;20701;-44
2022/01/20 08:12:43;;;;;;;9.35;3.33;;;;;;;;;;5098970;28;20212;-44
2022/01/20 08:15:10;;;;;;;10.32;3.40;;;;;;;;;;5096709;28;20173;-44
2022/01/20 08:17:37;;;;;;;6.60;2.70;;;;;;;;;;5093299;28;20173;-44
2022/01/20 08:20:04;;;;;;;8.50;2.92;;;;;;;;;;5087523;28;20442;-44
2022/01/20 08:22:34;;;;;;;8.25;2.90;;;;;;;;;;5092915;28;20198;-44
2022/01/20 08:25:00;;;;;;;8.65;2.90;;;;;;;;;;5088101;28;20251;-45
2022/01/20 08:27:26;;;;;;;7.03;2.65;;;;;;;;;;5097006;28;20185;-44
2022/01/20 08:29:53;;;;;;;8.15;3.08;;;;;;;;;;5105773;28;20216;-44
2022/01/20 08:32:19;;;;;;;7.18;2.53;;;;;;;;;;5095575;28;20194;-44
2022/01/20 08:34:45;;;;;;;5.85;2.47;;;;;;;;;;5092291;28;20257;-44
2022/01/20 08:37:11;;;;;;;6.85;2.40;;;;;;;;;;5093160;28;20188;-44
2022/01/20 08:42:04;;;;;;;5.68;2.30;;;;;;;;;;5110318;28;20197;-44
2022/01/20 08:44:30;;;;;;;6.32;2.65;;;;;;;;;;5113000;28;20173;-44
2022/01/20 08:46:58;;;;;;;7.93;2.75;;;;;;;;;;5092656;28;20251;-45
2022/01/20 08:49:25;;;;;;;5.45;2.42;;;;;;;;;;5096705;28;20250;-45
2022/01/20 08:51:51;;;;;;;6.75;2.55;;;;;;;;;;5074158;28;20188;-44
2022/01/20 08:54:17;;;;;;;4.18;2.42;;;;;;;;;;5083468;28;20526;-44
2022/01/20 08:56:43;;;;;;;5.78;2.40;;;;;;;;;;5075266;28;20576;-44
2022/01/20 08:59:11;;;;;;;4.20;2.22;;;;;;;;;;5099839;28;20177;-44
2022/01/20 09:01:38;;;;;;;6.93;2.22;;;;;;;;;;5108735;28;20162;-44
2022/01/20 09:04:05;;;;;;;5.05;2.40;;;;;;;;;;5096008;28;20178;-44
2022/01/20 09:06:31;;;;;;;5.35;2.17;;;;;;;;;;5079964;28;20198;-44
2022/01/20 09:08:57;;;;;;;4.00;2.00;;;;;;;;;;5096191;28;20174;-44
2022/01/20 09:11:30;;;;;;;4.68;2.33;;;;;;;;;;5096160;28;20554;-44
2022/01/20 09:16:40;;;;;;;4.93;2.28;;;;;;;;;;5095208;28;20192;-44
2022/01/20 09:19:06;;;;;;;3.42;2.05;;;;;;;;;;5092933;28;20443;-44
2022/01/20 09:21:32;;;;;;;3.60;2.10;;;;;;;;;;5083376;28;20169;-45
2022/01/20 09:23:58;;;;;;;5.07;2.35;;;;;;;;;;5096118;28;20177;-45
2022/01/20 09:26:25;;;;;;;5.43;2.20;;;;;;;;;;5095920;28;20230;-44
2022/01/20 09:28:51;;;;;;;5.20;2.50;;;;;;;;;;5093052;28;20178;-45
2022/01/20 09:31:21;;;;;;;7.32;2.60;;;;;;;;;;5084294;28;20244;-45
2022/01/20 09:33:47;;;;;;;10.68;3.05;;;;;;;;;;5090723;28;20695;-44
2022/01/20 09:36:13;;;;;;;13.05;3.08;;;;;;;;;;5095285;28;20261;-44
2022/01/20 09:38:39;;;;;;;8.35;3.38;;;;;;;;;;5094209;28;20592;-45
2022/01/20 09:41:05;;;;;;;6.70;2.53;;;;;;;;;;5096658;28;20201;-45
2022/01/20 09:43:32;;;;;;;7.25;2.47;;;;;;;;;;5090174;28;20181;-45
2022/01/20 09:45:59;;;;;;;3.90;1.92;;;;;;;;;;5096029;28;20188;-44
2022/01/20 09:48:26;;;;;;;6.22;2.78;;;;;;;;;;5095346;28;20565;-45
2022/01/20 09:50:53;;;;;;;7.20;2.63;;;;;;;;;;5095793;28;20209;-44
2022/01/20 09:53:19;;;;;;;7.47;2.30;;;;;;;;;;5095670;28;20918;-44
2022/01/20 09:55:45;;;;;;;6.07;2.08;;;;;;;;;;5095571;28;20174;-44
2022/01/20 09:58:12;;;;;;;5.00;2.13;;;;;;;;;;5096458;28;20189;-44
2022/01/20 10:00:40;;;;;;;5.93;2.28;;;;;;;;;;5096050;28;20192;-45
2022/01/20 10:03:09;;;;;;;6.32;2.50;;;;;;;;;;5091041;28;20328;-45
2022/01/20 10:05:35;;;;;;;6.07;2.38;;;;;;;;;;5089974;28;20213;-45
2022/01/20 10:08:03;;;;;;;5.70;2.17;;;;;;;;;;5094376;28;20209;-45
2022/01/20 10:10:40;;;;;;;5.75;2.20;;;;;;;;;;5095002;28;20200;-44
2022/01/20 10:13:06;;;;;;;5.28;2.15;;;;;;;;;;5095061;28;20165;-45
2022/01/20 10:15:33;;;;;;;9.27;2.42;;;;;;;;;;5095961;28;20223;-45
2022/01/20 10:18:05;;;;;;;5.13;1.90;;;;;;;;;;5094813;28;20479;-44
2022/01/20 10:20:31;;;;;;;6.13;2.40;;;;;;;;;;5095253;28;20278;-44
2022/01/20 10:22:57;;;;;;;10.07;2.08;;;;;;;;;;5093750;28;20269;-44
2022/01/20 10:25:24;;;;;;;5.28;2.00;;;;;;;;;;5092858;28;20201;-44
2022/01/20 10:27:57;;;;;;;5.15;1.70;;;;;;;;;;5095238;28;20540;-44
2022/01/20 10:30:25;;;;;;;5.22;2.15;;;;;;;;;;5092671;28;20216;-45
2022/01/20 10:32:53;;;;;;;4.93;1.75;;;;;;;;;;5096608;28;20202;-44
2022/01/20 10:35:24;;;;;;;3.88;1.50;;;;;;;;;;5093952;28;20198;-45
2022/01/20 10:37:58;;;;;;;3.90;1.55;;;;;;;;;;5094105;28;20278;-45
2022/01/20 10:40:24;;;;;;;4.57;1.90;;;;;;;;;;5086903;28;20177;-44
2022/01/20 10:42:50;;;;;;;3.70;1.98;;;;;;;;;;5090695;28;20286;-44
2022/01/20 10:45:30;;;;;;;7.35;2.10;;;;;;;;;;5094286;28;20450;-44
2022/01/20 10:47:58;;;;;;;4.00;1.63;;;;;;;;;;5094130;28;20570;-44
2022/01/20 10:50:27;;;;;;;4.80;1.67;;;;;;;;;;5094112;28;20209;-44
2022/01/20 10:52:53;;;;;;;4.35;1.80;;;;;;;;;;5085655;28;20182;-44
2022/01/20 10:55:19;;;;;;;3.15;1.60;;;;;;;;;;5087346;28;20184;-45
2022/01/20 10:57:45;;;;;;;4.65;1.90;;;;;;;;;;5094404;28;20165;-45
2022/01/20 11:00:12;;;;;;;5.20;1.55;;;;;;;;;;5094266;28;20544;-45
2022/01/20 11:02:38;;;;;;;3.88;1.80;;;;;;;;;;5093849;28;20341;-45
2022/01/20 11:05:06;;;;;;;4.55;1.67;;;;;;;;;;5102143;28;20177;-44
2022/01/20 11:07:33;;;;;;;3.55;1.30;;;;;;;;;;5099543;28;20185;-44
2022/01/20 11:10:03;;;;;;;4.53;1.80;;;;;;;;;;5093939;28;20247;-44
2022/01/20 11:12:30;;;;;;;5.43;1.75;;;;;;;;;;5087096;28;20233;-44
2022/01/20 11:14:57;;;;;;;5.22;2.08;;;;;;;;;;5090793;28;20264;-44
2022/01/20 11:17:24;;;;;;;3.45;1.90;;;;;;;;;;5093959;28;20250;-44
2022/01/20 11:19:50;;;;;;;3.30;1.77;;;;;;;;;;5090845;28;20186;-44
2022/01/20 11:22:17;;;;;;;2.90;1.92;;;;;;;;;;5089816;28;20209;-44
2022/01/20 11:24:44;;;;;;;6.18;2.50;;;;;;;;;;5077511;28;20545;-44
2022/01/20 11:27:14;;;;;;;8.10;2.80;;;;;;;;;;5075688;28;20181;-44
2022/01/20 11:29:43;;;;;;;7.35;2.80;;;;;;;;;;5080184;28;20469;-44
2022/01/20 11:32:16;;;;;;;6.93;2.90;;;;;;;;;;5081396;28;20166;-44
2022/01/20 11:34:53;;;;;;;6.63;2.50;;;;;;;;;;5093449;28;20587;-44
2022/01/20 11:37:23;;;;;;;10.15;3.45;;;;;;;;;;5093633;28;20193;-45
2022/01/20 11:39:49;;;;;;;5.20;2.40;;;;;;;;;;5087978;28;20175;-44
2022/01/20 11:42:22;;;;;;;7.25;2.70;;;;;;;;;;5081648;28;20252;-44
2022/01/20 11:44:48;;;;;;;5.95;2.42;;;;;;;;;;5091740;28;20827;-44
2022/01/20 11:47:14;;;;;;;6.22;3.05;;;;;;;;;;5089851;28;20194;-45
2022/01/20 11:49:44;;;;;;;5.68;2.80;;;;;;;;;;5092667;28;20588;-44
2022/01/20 11:52:11;;;;;;;5.95;2.80;;;;;;;;;;5071435;28;20178;-45
2022/01/20 11:54:39;;;;;;;6.68;3.35;;;;;;;;;;5066332;28;20500;-44
2022/01/20 11:57:06;;;;;;;12.05;3.45;;;;;;;;;;5093041;28;20191;-44
2022/01/20 11:59:41;;;;;;;6.82;2.97;;;;;;;;;;5093334;28;20274;-44
2022/01/20 12:02:07;;;;;;;5.32;3.10;;;;;;;;;;5093054;28;20181;-44
2022/01/20 12:04:34;;;;;;;7.22;3.20;;;;;;;;;;5092751;28;20193;-45
2022/01/20 12:07:01;;;;;;;7.00;3.25;;;;;;;;;;5092901;28;20822;-45
2022/01/20 12:09:37;;;;;;;5.95;3.17;;;;;;;;;;5092977;28;20545;-44
2022/01/20 12:12:04;;;;;;;7.45;3.30;;;;;;;;;;5092666;28;20306;-44
2022/01/20 12:14:35;;;;;;;8.00;3.10;;;;;;;;;;5080795;28;20578;-44
2022/01/20 12:17:04;;;;;;;7.15;3.30;;;;;;;;;;5090614;28;20197;-44
2022/01/20 12:19:30;;;;;;;7.80;3.05;;;;;;;;;;5092786;28;20197;-44
2022/01/20 12:21:56;;;;;;;6.97;3.33;;;;;;;;;;5090434;28;20201;-44
2022/01/20 12:24:22;;;;;;;8.65;2.95;;;;;;;;;;5083107;28;20259;-44
2022/01/20 12:26:48;;;;;;;6.25;2.92;;;;;;;;;;5085209;28;20439;-44
2022/01/20 12:29:14;;;;;;;6.63;2.88;;;;;;;;;;5093401;28;20170;-44
2022/01/20 12:31:48;;;;;;;4.53;2.20;;;;;;;;;;5095706;28;20180;-44
2022/01/20 12:34:14;;;;;;;5.38;2.60;;;;;;;;;;5095420;28;20162;-44
2022/01/20 12:36:40;;;;;;;4.95;2.40;;;;;;;;;;5096883;28;20205;-44
2022/01/20 12:39:06;;;;;;;4.22;2.60;;;;;;;;;;5097131;28;20242;-44
2022/01/20 12:41:33;;;;;;;3.97;2.05;;;;;;;;;;5096444;28;20177;-44
2022/01/20 12:44:05;;;;;;;5.55;2.70;;;;;;;;;;5096132;28;20174;-45
2022/01/20 12:46:33;;;;;;;8.57;2.55;;;;;;;;;;5096208;28;20196;-44
2022/01/20 12:49:00;;;;;;;4.80;2.35;;;;;;;;;;5096120;28;20188;-44
2022/01/20 12:51:37;;;;;;;5.75;2.60;;;;;;;;;;5096902;28;20297;-44
2022/01/20 12:54:08;;;;;;;3.65;2.30;;;;;;;;;;5095004;28;20181;-44
2022/01/20 12:56:37;;;;;;;3.50;2.10;;;;;;;;;;5084408;28;20206;-44
2022/01/20 12:59:04;;;;;;;4.03;2.30;;;;;;;;;;5091143;28;20177;-44
2022/01/20 13:01:44;;;;;;;5.93;2.13;;;;;;;;;;5096776;28;20223;-44
2022/01/20 13:04:11;;;;;;;3.83;2.08;;;;;;;;;;5104868;28;20207;-44
2022/01/20 13:06:40;;;;;;;4.07;2.25;;;;;;;;;;5094788;28;20186;-44
2022/01/20 13:09:10;;;;;;;6.18;2.38;;;;;;;;;;5096671;28;20165;-44
2022/01/20 13:11:52;;;;;;;5.93;2.33;;;;;;;;;;5096345;28;20209;-44
2022/01/20 13:14:18;;;;;;;4.55;1.98;;;;;;;;;;5096096;28;20271;-44
2022/01/20 13:16:54;;;;;;;4.13;2.05;;;;;;;;;;5096670;28;20166;-44
2022/01/20 13:19:21;;;;;;;3.78;1.83;;;;;;;;;;5088210;28;20189;-44
2022/01/20 13:21:53;;;;;;;4.57;1.98;;;;;;;;;;5094993;28;20173;-44
2022/01/20 13:24:26;;;;;;;3.45;1.90;;;;;;;;;;5095611;28;20886;-44
2022/01/20 13:26:53;;;;;;;3.70;1.85;;;;;;;;;;5096019;28;20174;-44
2022/01/20 13:29:20;;;;;;;4.68;2.20;;;;;;;;;;5096227;28;20173;-45
2022/01/20 13:31:47;;;;;;;3.67;1.90;;;;;;;;;;5095779;28;20593;-44
2022/01/20 13:34:18;;;;;;;4.47;2.05;;;;;;;;;;5095599;28;20177;-44
2022/01/20 13:36:51;;;;;;;3.72;1.88;;;;;;;;;;5094518;28;20181;-44
2022/01/20 13:39:31;;;;;;;4.75;2.20;;;;;;;;;;5096189;28;20178;-44
2022/01/20 13:45:14;;;;;;;3.70;1.98;;;;;;;;;;5066331;28;20181;-44
2022/01/20 13:47:46;;;;;;;5.95;2.35;;;;;;;;;;5091060;28;20173;-44
2022/01/20 13:50:15;;;;;;;3.35;1.90;;;;;;;;;;5092978;28;20462;-45
2022/01/20 13:52:41;;;;;;;3.63;2.05;;;;;;;;;;5100742;28;20182;-45
2022/01/20 13:55:17;;;;;;;6.18;2.30;;;;;;;;;;5100157;28;20203;-44
2022/01/20 13:57:43;;;;;;;4.32;2.67;;;;;;;;;;5099238;28;20238;-44
2022/01/20 14:00:12;;;;;;;4.65;2.63;;;;;;;;;;5095330;28;20611;-44
2022/01/20 14:02:38;;;;;;;5.88;2.35;;;;;;;;;;5090997;28;20490;-45
2022/01/20 14:05:04;;;;;;;6.70;2.35;;;;;;;;;;5090757;28;20210;-45
2022/01/20 14:07:30;;;;;;;6.45;2.70;;;;;;;;;;5094498;28;20186;-45
2022/01/20 14:09:57;;;;;;;6.22;2.47;;;;;;;;;;5094011;28;20201;-44
2022/01/20 14:12:23;;;;;;;6.07;2.47;;;;;;;;;;5100109;28;20205;-44
2022/01/20 14:14:49;;;;;;;5.38;2.70;;;;;;;;;;5086609;28;20226;-44
2022/01/20 14:17:22;;;;;;;5.75;2.50;;;;;;;;;;5106942;28;20252;-44
2022/01/20 14:19:55;;;;;;;6.03;2.75;;;;;;;;;;5097105;28;20186;-44
2022/01/20 14:22:21;;;;;;;5.70;2.90;;;;;;;;;;5085359;28;20186;-44
2022/01/20 14:24:47;;;;;;;4.40;2.45;;;;;;;;;;5093877;28;20177;-44
2022/01/20 14:27:16;;;;;;;4.45;2.60;;;;;;;;;;5092130;28;20217;-45
2022/01/20 14:29:43;;;;;;;6.97;2.58;;;;;;;;;;5108560;28;20245;-45
2022/01/20 14:32:10;;;;;;;4.97;2.83;;;;;;;;;;5100600;28;20501;-45
2022/01/20 14:34:36;;;;;;;4.28;2.53;;;;;;;;;;5094100;28;20308;-45
2022/01/20 14:37:02;;;;;;;5.28;3.00;;;;;;;;;;5095183;28;20269;-44
2022/01/20 14:39:28;;;;;;;5.20;2.97;;;;;;;;;;5091680;28;20182;-44
2022/01/20 14:41:55;;;;;;;6.93;2.78;;;;;;;;;;5093080;28;20185;-45
2022/01/20 14:44:21;;;;;;;7.03;3.00;;;;;;;;;;5093723;28;20189;-44
2022/01/20 14:46:48;;;;;;;5.15;2.80;;;;;;;;;;5088058;28;20186;-44
2022/01/20 14:49:15;;;;;;;7.40;2.75;;;;;;;;;;5083365;28;20572;-44
2022/01/20 14:51:41;;;;;;;4.82;2.80;;;;;;;;;;5093631;28;20366;-44
2022/01/20 14:54:07;;;;;;;5.40;2.42;;;;;;;;;;5093587;28;20182;-44
2022/01/20 14:56:33;;;;;;;4.68;2.83;;;;;;;;;;5093799;28;20177;-44
2022/01/20 14:58:59;;;;;;;5.55;2.30;;;;;;;;;;5080145;28;20178;-44
2022/01/20 15:01:25;;;;;;;8.40;2.90;;;;;;;;;;5093796;28;20217;-44
2022/01/20 15:03:51;;;;;;;4.97;2.40;;;;;;;;;;5089750;28;20459;-45
2022/01/20 15:06:17;;;;;;;6.30;2.72;;;;;;;;;;5093748;28;20190;-45
2022/01/20 15:08:43;;;;;;;4.85;2.58;;;;;;;;;;5093057;28;20184;-45
2022/01/20 15:11:09;;;;;;;4.10;2.22;;;;;;;;;;5098730;28;20576;-45
2022/01/20 15:13:35;;;;;;;7.38;3.13;;;;;;;;;;5093486;28;20170;-45
2022/01/20 15:16:01;;;;;;;3.67;2.28;;;;;;;;;;5095795;28;20256;-45
2022/01/20 15:18:27;;;;;;;3.28;2.10;;;;;;;;;;5111998;28;20188;-45
2022/01/20 15:20:53;;;;;;;3.85;2.58;;;;;;;;;;5098602;28;20205;-45
2022/01/20 15:23:18;;;;;;;4.28;2.75;;;;;;;;;;5093362;28;20432;-45
2022/01/20 15:25:44;;;;;;;3.47;2.20;;;;;;;;;;5093472;28;20227;-45
2022/01/20 15:28:10;;;;;;;3.60;2.42;;;;;;;;;;5094208;28;20590;-46
2022/01/20 15:30:36;;;;;;;4.32;2.40;;;;;;;;;;5093866;28;20280;-45
2022/01/20 15:33:02;;;;;;;4.65;2.40;;;;;;;;;;5091166;28;20181;-45
2022/01/20 15:35:28;;;;;;;3.33;2.40;;;;;;;;;;5079775;28;20218;-45
2022/01/20 15:37:54;;;;;;;5.70;2.47;;;;;;;;;;5098749;28;20212;-45
2022/01/20 15:40:21;;;;;;;6.20;2.80;;;;;;;;;;5107106;28;20188;-47
2022/01/20 15:42:47;;;;;;;7.78;2.40;;;;;;;;;;5114037;28;20502;-44
2022/01/20 15:45:12;;;;;;;9.63;2.70;;;;;;;;;;5113662;28;20177;-44
2022/01/20 15:47:39;;;;;;;4.45;2.42;;;;;;;;;;5089122;28;20178;-44
2022/01/20 15:50:06;;;;;;;7.00;2.45;;;;;;;;;;5093643;28;20881;-44
2022/01/20 15:52:32;;;;;;;9.98;2.63;;;;;;;;;;5075354;28;20243;-44
2022/01/20 15:54:58;;;;;;;8.73;2.55;;;;;;;;;;5076250;28;20458;-44
2022/01/20 15:57:24;;;;;;;4.18;2.30;;;;;;;;;;5076428;28;20261;-45
2022/01/20 16:02:54;;;;;;;4.70;2.25;;;;;;;;;;5076702;28;20592;-45
2022/01/20 16:05:21;;;;;;;3.92;2.35;;;;;;;;;;5076527;28;20533;-45